Time;durP1;ratioP1;P1;durP2;ratioP2;P2;SDS_P1;SDS_P2;PMS_P1;PMS_P2;Temp;Humidity;BMP_temperature;BMP_pressure;BME280_temperature;BME280_humidity;BME280_pressure;Samples;Min_cycle;Max_cycle;Signal;HPM_P1;HPM_P2
2022/08/17 00:02:17;;;;;;;7.07;4.77;;;;;;;21.28;68.79;100394.22;6088946;28;20465;-65
2022/08/17 00:05:14;;;;;;;10.90;4.57;;;;;;;21.15;69.13;100388.94;6090611;28;20167;-64
2022/08/17 00:08:11;;;;;;;7.15;4.57;;;;;;;21.19;68.11;100387.47;6089408;28;20492;-65
2022/08/17 00:11:10;;;;;;;6.70;4.68;;;;;;;21.23;67.90;100393.22;6091590;28;20059;-64
2022/08/17 00:14:08;;;;;;;8.25;4.50;;;;;;;21.15;67.76;100391.66;6091810;28;20027;-64
2022/08/17 00:17:05;;;;;;;7.13;4.50;;;;;;;21.15;68.44;100380.03;6091875;28;20036;-65
2022/08/17 00:20:00;;;;;;;9.10;4.60;;;;;;;21.07;68.95;100385.72;6093894;28;20033;-65
2022/08/17 00:23:09;;;;;;;8.60;4.60;;;;;;;21.03;68.72;100396.09;6093250;28;20029;-66
2022/08/17 00:26:05;;;;;;;6.38;4.32;;;;;;;20.85;69.79;100400.59;6092765;28;20286;-65
2022/08/17 00:29:01;;;;;;;7.65;5.18;;;;;;;20.93;69.68;100390.38;6091035;28;20068;-65
2022/08/17 00:31:56;;;;;;;8.68;5.03;;;;;;;20.92;70.37;100401.38;6090913;28;20035;-65
2022/08/17 00:34:52;;;;;;;8.83;4.67;;;;;;;20.78;69.67;100388.03;6096452;28;20445;-65
2022/08/17 00:37:49;;;;;;;6.20;4.20;;;;;;;20.88;69.67;100386.69;6096059;28;20037;-64
2022/08/17 00:40:48;;;;;;;6.15;4.53;;;;;;;20.90;69.94;100398.09;6095932;28;20029;-66
2022/08/17 00:43:50;;;;;;;6.53;4.35;;;;;;;20.84;69.99;100393.59;6095456;28;20061;-65
2022/08/17 00:46:46;;;;;;;8.52;5.13;;;;;;;20.81;69.32;100386.75;6095174;28;20794;-66
2022/08/17 00:49:42;;;;;;;10.40;5.30;;;;;;;20.91;70.31;100403.25;6096779;28;20021;-65
2022/08/17 00:52:42;;;;;;;8.77;4.87;;;;;;;20.90;70.49;100393.50;6094321;28;20041;-65
2022/08/17 00:55:38;;;;;;;10.55;5.03;;;;;;;20.88;69.43;100375.91;6095523;28;20317;-65
2022/08/17 00:58:34;;;;;;;7.50;5.10;;;;;;;20.55;68.94;100378.88;6095371;28;20044;-65
2022/08/17 01:01:30;;;;;;;9.75;5.75;;;;;;;20.26;69.70;100391.09;6093220;28;20246;-65
2022/08/17 01:04:26;;;;;;;8.00;5.05;;;;;;;20.09;70.90;100377.28;6096904;28;20573;-64
2022/08/17 01:07:22;;;;;;;10.90;4.97;;;;;;;20.30;70.59;100368.06;6090901;28;20029;-66
2022/08/17 01:10:28;;;;;;;8.40;4.85;;;;;;;20.45;69.70;100373.16;6092092;28;20033;-65
2022/08/17 01:13:26;;;;;;;7.90;4.90;;;;;;;20.44;70.49;100383.09;6093840;28;20085;-65
2022/08/17 01:16:27;;;;;;;8.27;5.05;;;;;;;20.40;70.28;100375.69;6093579;28;20064;-65
2022/08/17 01:19:29;;;;;;;9.20;5.57;;;;;;;20.46;70.06;100382.91;6096101;28;20690;-65
2022/08/17 01:22:25;;;;;;;9.32;4.78;;;;;;;20.47;70.00;100376.44;6090424;28;20466;-65
2022/08/17 01:25:21;;;;;;;9.32;5.25;;;;;;;20.46;70.24;100385.59;6096447;28;20036;-64
2022/08/17 01:28:17;;;;;;;6.82;4.65;;;;;;;20.31;70.28;100379.66;6093091;28;20060;-65
2022/08/17 01:31:12;;;;;;;8.90;5.55;;;;;;;20.03;70.55;100382.72;6093290;28;20041;-65
2022/08/17 01:34:09;;;;;;;11.50;5.27;;;;;;;19.89;71.33;100391.91;6095345;28;20121;-64
2022/08/17 01:37:04;;;;;;;8.77;5.35;;;;;;;19.66;72.29;100397.78;6094558;28;20295;-64
2022/08/17 01:40:17;;;;;;;10.90;5.43;;;;;;;19.38;73.08;100392.69;6094151;28;20037;-64
2022/08/17 01:43:14;;;;;;;;;;;;;;;19.27;74.24;100400.56;6093160;28;20039;-64
2022/08/17 01:46:14;;;;;;;11.60;5.78;;;;;;;19.16;75.02;100395.84;6096005;28;19963;-65
2022/08/17 01:49:10;;;;;;;9.93;5.93;;;;;;;19.27;74.19;100395.19;6095322;28;20611;-65
2022/08/17 01:52:09;;;;;;;7.55;4.90;;;;;;;19.29;74.19;100387.75;6090951;28;20024;-64
2022/08/17 01:55:05;;;;;;;12.55;6.22;;;;;;;19.36;74.24;100407.34;6095685;28;20024;-65
2022/08/17 01:58:01;;;;;;;11.32;6.18;;;;;;;19.14;75.56;100411.31;6088782;28;20404;-65
2022/08/17 02:00:56;;;;;;;9.05;5.78;;;;;;;19.23;74.88;100402.00;6091688;28;20029;-64
2022/08/17 02:03:52;;;;;;;9.47;6.57;;;;;;;19.22;74.67;100392.28;6093371;28;20099;-64
2022/08/17 02:06:48;;;;;;;9.93;6.43;;;;;;;19.20;75.23;100405.13;6092164;28;20029;-64
2022/08/17 02:09:43;;;;;;;9.77;6.13;;;;;;;18.94;76.44;100406.00;6093723;28;20136;-64
2022/08/17 02:12:38;;;;;;;9.63;6.72;;;;;;;18.99;76.62;100398.13;6090810;28;20037;-64
2022/08/17 02:15:34;;;;;;;13.70;6.60;;;;;;;19.05;76.58;100402.69;6095490;28;20429;-64
2022/08/17 02:18:29;;;;;;;11.35;6.22;;;;;;;18.91;77.11;100411.78;6094251;28;20033;-65
2022/08/17 02:21:24;;;;;;;11.40;6.77;;;;;;;18.95;76.78;100400.41;6088164;28;20041;-64
2022/08/17 02:24:23;;;;;;;15.07;6.50;;;;;;;18.99;76.61;100400.81;6093436;28;20032;-65
2022/08/17 02:27:19;;;;;;;10.60;6.45;;;;;;;18.98;75.97;100389.22;6094817;28;20276;-64
2022/08/17 02:30:15;;;;;;;10.20;5.75;;;;;;;18.94;76.43;100409.47;6091665;28;20036;-65
2022/08/17 02:33:10;;;;;;;8.93;6.13;;;;;;;18.84;77.00;100389.44;6092796;28;20025;-65
2022/08/17 02:36:07;;;;;;;10.73;5.90;;;;;;;19.13;75.74;100398.94;6094837;28;20094;-65
2022/08/17 02:39:05;;;;;;;10.18;6.47;;;;;;;18.84;76.53;100384.91;6093818;28;20124;-64
2022/08/17 02:42:01;;;;;;;9.75;6.45;;;;;;;18.72;77.74;100391.94;6091925;28;20071;-64
2022/08/17 02:44:56;;;;;;;9.27;6.07;;;;;;;18.67;77.60;100378.28;6094943;28;20448;-64
2022/08/17 02:47:52;;;;;;;9.23;6.55;;;;;;;18.66;77.83;100398.13;6093314;28;20025;-65
2022/08/17 02:50:48;;;;;;;9.07;6.45;;;;;;;18.76;77.45;100385.09;6092598;28;20041;-65
2022/08/17 02:53:43;;;;;;;13.13;6.55;;;;;;;18.71;77.45;100376.84;6092826;28;20037;-65
2022/08/17 02:56:38;;;;;;;13.07;6.37;;;;;;;18.53;77.95;100378.50;6094133;28;20055;-65
2022/08/17 02:59:33;;;;;;;7.87;5.87;;;;;;;18.78;77.98;100374.16;6091026;28;20040;-63
2022/08/17 03:02:29;;;;;;;10.93;6.30;;;;;;;18.90;77.39;100373.31;6091016;28;20156;-64
2022/08/17 03:05:27;;;;;;;8.50;5.63;;;;;;;18.47;78.31;100382.78;6092179;28;20057;-65
2022/08/17 03:08:24;;;;;;;10.27;5.90;;;;;;;18.16;79.62;100386.03;6092886;28;20037;-64
2022/08/17 03:11:19;;;;;;;10.45;5.53;;;;;;;17.89;80.63;100386.16;6092145;28;20033;-65
2022/08/17 03:14:14;;;;;;;10.27;5.73;;;;;;;17.62;81.85;100386.06;6092832;28;20036;-64
2022/08/17 03:17:11;;;;;;;9.53;5.40;;;;;;;17.54;82.65;100405.00;6092246;28;20061;-64
2022/08/17 03:20:07;;;;;;;9.65;5.85;;;;;;;17.70;82.39;100371.66;6091152;28;20087;-65
2022/08/17 03:23:03;;;;;;;9.40;5.75;;;;;;;18.34;81.21;100388.16;6092115;28;20472;-64
2022/08/17 03:25:59;;;;;;;12.05;6.00;;;;;;;18.28;79.46;100395.16;6093558;28;20025;-64
2022/08/17 03:28:54;;;;;;;9.60;6.78;;;;;;;18.28;79.39;100383.59;6093118;28;20033;-64
2022/08/17 03:31:49;;;;;;;11.07;6.20;;;;;;;18.30;79.97;100384.22;6091193;28;20031;-65
2022/08/17 03:34:44;;;;;;;9.20;5.67;;;;;;;18.68;78.89;100398.75;6092659;28;20548;-65
2022/08/17 03:37:40;;;;;;;11.87;6.00;;;;;;;18.58;79.20;100384.06;6092676;28;20124;-65
2022/08/17 03:40:35;;;;;;;11.23;5.80;;;;;;;18.68;78.10;100390.69;6089490;28;20036;-64
2022/08/17 03:43:32;;;;;;;11.77;6.32;;;;;;;18.60;78.77;100388.22;6086618;28;20099;-65
2022/08/17 03:59:23;;;;;;;11.10;6.80;;;;;;;18.64;78.90;100394.84;6094398;28;20041;-64
2022/08/17 04:02:22;;;;;;;11.00;6.33;;;;;;;18.51;79.49;100392.13;6097553;28;20468;-65
2022/08/17 04:05:18;;;;;;;10.50;6.60;;;;;;;18.52;80.46;100396.47;6092112;28;20033;-65
2022/08/17 04:08:14;;;;;;;11.10;6.90;;;;;;;18.15;81.38;100405.03;6096969;28;20035;-65
2022/08/17 04:11:09;;;;;;;12.57;6.85;;;;;;;17.70;82.59;100402.00;6093031;28;20021;-64
2022/08/17 04:14:05;;;;;;;9.40;6.17;;;;;;;17.34;83.52;100417.44;6097433;28;20102;-64
2022/08/17 04:17:01;;;;;;;9.60;6.00;;;;;;;17.01;84.49;100416.41;6097711;28;20033;-66
2022/08/17 04:19:56;;;;;;;9.57;6.20;;;;;;;16.78;85.66;100410.44;6092694;28;20038;-64
2022/08/17 04:23:05;;;;;;;11.60;6.32;;;;;;;16.69;86.90;100422.31;6096620;28;20032;-65
2022/08/17 04:26:01;;;;;;;11.85;6.35;;;;;;;16.57;88.12;100420.16;6096894;28;20039;-64
2022/08/17 04:28:57;;;;;;;12.15;6.97;;;;;;;16.61;88.76;100412.53;6095929;28;20491;-64
2022/08/17 04:31:52;;;;;;;13.88;6.65;;;;;;;16.63;88.98;100410.53;6094160;28;20029;-65
2022/08/17 04:34:48;;;;;;;11.90;6.57;;;;;;;16.81;88.77;100415.41;6095788;28;20045;-66
2022/08/17 04:37:44;;;;;;;11.43;6.63;;;;;;;16.98;87.80;100412.25;6087001;28;20298;-64
2022/08/17 04:43:57;;;;;;;12.30;6.05;;;;;;;16.94;87.37;100419.03;6097719;28;20037;-65
2022/08/17 04:46:52;;;;;;;11.52;6.38;;;;;;;17.06;87.12;100420.16;6096124;28;20037;-65
2022/08/17 04:49:47;;;;;;;12.70;6.70;;;;;;;17.02;87.67;100423.41;6095400;28;20151;-65
2022/08/17 04:52:46;;;;;;;11.03;6.67;;;;;;;17.01;87.99;100417.19;6094921;28;20044;-64
2022/08/17 04:55:41;;;;;;;10.55;7.53;;;;;;;17.14;88.23;100428.03;6097083;28;20255;-64
2022/08/17 04:58:36;;;;;;;12.07;6.60;;;;;;;17.80;86.96;100431.94;6096020;28;20061;-65
2022/08/17 05:01:34;;;;;;;10.63;6.47;;;;;;;18.27;82.65;100419.50;6091519;28;20024;-65
2022/08/17 05:04:29;;;;;;;9.88;6.32;;;;;;;18.42;81.61;100425.56;6097153;28;20109;-65
2022/08/17 05:07:24;;;;;;;11.43;5.93;;;;;;;18.73;81.30;100425.81;6095352;28;20421;-65
2022/08/17 05:10:21;;;;;;;11.87;6.90;;;;;;;19.68;77.63;100430.69;6096059;28;20279;-65
2022/08/17 05:13:22;;;;;;;9.57;6.18;;;;;;;20.08;74.81;100426.78;6094206;28;20104;-64
2022/08/17 05:16:19;;;;;;;10.25;6.30;;;;;;;20.27;72.79;100437.72;6091048;28;20114;-64
2022/08/17 05:19:14;;;;;;;12.80;6.60;;;;;;;20.25;72.51;100437.13;6087963;28;20406;-65
2022/08/17 05:22:09;;;;;;;10.07;7.37;;;;;;;19.67;75.09;100442.50;6090810;28;20024;-63
2022/08/17 05:25:05;;;;;;;10.20;7.40;;;;;;;19.54;76.57;100450.63;6096366;28;20735;-64
2022/08/17 05:28:00;;;;;;;10.13;6.45;;;;;;;20.17;75.02;100457.00;6091660;28;20464;-64
2022/08/17 05:31:00;;;;;;;10.20;6.67;;;;;;;20.42;74.53;100438.25;6095737;28;20039;-65
2022/08/17 05:33:55;;;;;;;11.02;7.38;;;;;;;20.63;72.77;100445.97;6093442;28;20758;-65
2022/08/17 05:36:50;;;;;;;11.83;7.47;;;;;;;20.66;72.78;100450.94;6093817;28;20071;-64
2022/08/17 05:39:46;;;;;;;11.93;6.60;;;;;;;20.66;72.48;100448.22;6095926;28;20051;-65
2022/08/17 05:42:41;;;;;;;13.70;7.63;;;;;;;20.78;72.63;100457.28;6089685;28;20040;-65
2022/08/17 05:46:01;;;;;;;11.77;7.28;;;;;;;20.62;72.35;100452.41;6095528;28;20267;-66
2022/08/17 05:49:00;;;;;;;16.13;6.65;;;;;;;21.15;71.20;100456.38;6091109;28;20072;-64
2022/08/17 05:52:17;;;;;;;14.05;7.93;;;;;;;21.19;71.24;100463.00;6091226;28;20037;-65
2022/08/17 05:55:16;;;;;;;10.00;6.72;;;;;;;20.87;72.09;100472.16;6095075;28;20051;-64
2022/08/17 05:58:21;;;;;;;11.07;7.80;;;;;;;20.64;72.92;100464.63;6090945;28;20041;-63
2022/08/17 06:01:49;;;;;;;11.77;7.25;;;;;;;21.17;71.36;100466.97;6090367;28;20087;-65
2022/08/17 06:05:01;;;;;;;14.25;7.80;;;;;;;20.98;70.92;100460.63;6086355;28;20051;-65
2022/08/17 06:08:11;;;;;;;10.60;7.22;;;;;;;21.05;71.15;100471.38;6095094;28;20036;-65
2022/08/17 06:11:40;;;;;;;12.15;6.90;;;;;;;21.45;69.98;100471.88;6091917;28;20457;-66
2022/08/17 06:15:01;;;;;;;11.52;7.32;;;;;;;21.27;69.78;100468.13;6093051;28;20048;-65
2022/08/17 06:17:59;;;;;;;11.70;7.13;;;;;;;21.15;71.54;100459.06;6093172;28;20029;-65
2022/08/17 06:21:01;;;;;;;13.25;7.43;;;;;;;21.80;69.09;100462.97;6092557;28;20033;-65
2022/08/17 06:24:04;;;;;;;14.52;8.15;;;;;;;21.94;67.30;100460.97;6090962;28;20029;-63
2022/08/17 06:27:24;;;;;;;11.25;7.28;;;;;;;22.33;66.87;100460.50;6090848;28;20080;-64
2022/08/17 06:30:25;;;;;;;13.55;7.38;;;;;;;22.53;64.56;100447.50;6091091;28;20616;-65
2022/08/17 06:33:32;;;;;;;11.63;7.00;;;;;;;23.39;61.79;100457.00;6091954;28;20037;-65
2022/08/17 06:36:39;;;;;;;14.60;7.40;;;;;;;22.93;63.32;100452.34;6091990;28;20141;-65
2022/08/17 06:40:06;;;;;;;11.63;7.18;;;;;;;23.18;62.33;100463.78;6086438;28;20045;-64
2022/08/17 06:43:40;;;;;;;9.90;6.80;;;;;;;23.35;62.08;100472.84;6090160;28;20039;-64
2022/08/17 06:46:38;;;;;;;11.57;6.85;;;;;;;22.50;64.80;100456.06;6083288;28;20045;-64
2022/08/17 06:49:48;;;;;;;12.93;7.20;;;;;;;23.25;62.12;100452.84;6094003;28;20029;-64
2022/08/17 06:53:09;;;;;;;10.73;6.40;;;;;;;23.83;60.65;100460.94;6084297;28;20055;-64
2022/08/17 06:56:10;;;;;;;10.25;6.05;;;;;;;23.79;60.24;100462.47;6088284;28;20321;-64
2022/08/17 06:59:09;;;;;;;10.65;6.35;;;;;;;23.91;59.52;100449.75;6087997;28;20033;-64
2022/08/17 07:02:06;;;;;;;8.50;6.07;;;;;;;23.78;60.01;100463.56;6087297;28;20108;-65
2022/08/17 07:05:03;;;;;;;9.13;6.47;;;;;;;24.38;58.51;100450.44;6092237;28;20094;-64
2022/08/17 07:08:03;;;;;;;10.85;6.18;;;;;;;24.42;58.23;100452.41;6091083;28;20035;-64
2022/08/17 07:11:25;;;;;;;9.25;6.00;;;;;;;25.06;55.73;100461.16;6089566;28;20536;-66
2022/08/17 07:14:27;;;;;;;9.85;6.53;;;;;;;25.08;56.96;100459.84;6083566;28;20044;-64
2022/08/17 07:17:23;;;;;;;8.80;5.57;;;;;;;25.07;56.05;100451.94;6094158;28;20104;-66
2022/08/17 07:20:21;;;;;;;12.13;6.40;;;;;;;25.30;55.23;100451.75;6092946;28;20082;-64
2022/08/17 07:23:33;;;;;;;8.35;6.03;;;;;;;25.89;54.02;100440.13;6091676;28;20040;-65
2022/08/17 07:26:28;;;;;;;12.00;6.10;;;;;;;25.61;54.37;100458.47;6084480;28;20033;-65
2022/08/17 07:29:24;;;;;;;11.70;5.70;;;;;;;26.43;51.80;100448.38;6088681;28;20033;-65
2022/08/17 07:32:24;;;;;;;10.98;5.65;;;;;;;26.60;50.36;100452.63;6091290;28;20278;-64
2022/08/17 07:35:40;;;;;;;7.72;5.93;;;;;;;26.38;50.36;100460.03;6089448;28;20025;-65
2022/08/17 07:38:54;;;;;;;10.65;5.95;;;;;;;26.71;49.02;100452.72;6097728;28;20217;-65
2022/08/17 07:41:50;;;;;;;8.82;5.28;;;;;;;26.91;48.73;100433.88;6089246;28;20065;-64
2022/08/17 07:44:53;;;;;;;7.07;4.70;;;;;;;27.37;47.04;100456.84;6090920;28;20511;-65
2022/08/17 07:51:36;;;;;;;6.28;4.85;;;;;;;27.35;46.88;100459.81;6090026;28;20384;-65
2022/08/17 07:54:35;;;;;;;9.23;4.78;;;;;;;27.55;46.69;100448.25;6081912;28;20041;-65
2022/08/17 07:57:34;;;;;;;7.32;5.10;;;;;;;27.64;46.13;100447.47;6091626;28;20190;-65
2022/08/17 08:00:31;;;;;;;10.07;4.65;;;;;;;28.19;45.00;100457.81;6086428;28;20039;-65
2022/08/17 08:03:27;;;;;;;7.15;4.97;;;;;;;28.61;43.76;100445.91;6092386;28;20543;-64
2022/08/17 08:06:23;;;;;;;6.20;4.45;;;;;;;28.31;43.67;100450.25;6087674;28;20491;-65
2022/08/17 08:09:33;;;;;;;13.98;5.22;;;;;;;28.56;44.12;100456.84;6088999;28;20032;-65
2022/08/17 08:12:40;;;;;;;7.25;4.35;;;;;;;28.08;44.59;100453.41;6084266;28;20029;-65
2022/08/17 08:15:47;;;;;;;8.88;4.45;;;;;;;28.19;43.91;100460.56;6086941;28;20407;-65
2022/08/17 08:18:48;;;;;;;7.88;4.20;;;;;;;27.94;44.47;100457.69;6089380;28;20464;-65
2022/08/17 08:21:57;;;;;;;5.88;3.70;;;;;;;28.12;44.19;100465.44;6091265;28;20040;-65
2022/08/17 08:25:20;;;;;;;6.47;4.10;;;;;;;28.32;43.77;100472.84;6091929;28;20025;-65
2022/08/17 08:28:34;;;;;;;6.55;4.28;;;;;;;27.92;44.81;100476.22;6090604;28;20032;-65
2022/08/17 08:31:55;;;;;;;9.95;4.97;;;;;;;27.52;46.09;100473.28;6087766;28;20125;-65
2022/08/17 08:35:01;;;;;;;6.50;5.20;;;;;;;27.55;45.65;100470.03;6092084;28;20041;-66
2022/08/17 08:38:11;;;;;;;10.05;4.85;;;;;;;28.12;45.24;100473.63;6090426;28;20029;-65
2022/08/17 08:41:33;;;;;;;9.23;4.30;;;;;;;28.72;43.79;100467.53;6093679;28;20036;-65
2022/08/17 08:44:46;;;;;;;6.63;4.30;;;;;;;29.06;42.66;100476.00;6093732;28;20037;-65
2022/08/17 08:48:13;;;;;;;6.40;3.95;;;;;;;29.07;42.21;100476.84;6093985;28;20037;-65
2022/08/17 08:51:15;;;;;;;7.53;4.78;;;;;;;29.11;42.86;100472.47;6095510;28;20485;-65
2022/08/17 08:54:16;;;;;;;7.50;4.45;;;;;;;29.00;41.93;100473.56;6097193;28;20128;-65
2022/08/17 08:57:26;;;;;;;8.27;4.22;;;;;;;29.22;42.22;100480.41;6094229;28;20040;-66
2022/08/17 09:00:24;;;;;;;7.13;5.00;;;;;;;28.89;42.28;100465.34;6095174;28;20037;-65
2022/08/17 09:03:26;;;;;;;12.05;4.32;;;;;;;28.79;42.50;100481.72;6094712;28;20090;-65
2022/08/17 09:06:39;;;;;;;7.63;4.60;;;;;;;28.52;42.59;100477.56;6096311;28;20103;-65
2022/08/17 09:09:44;;;;;;;8.18;3.97;;;;;;;28.65;42.17;100472.44;6093740;28;20089;-64
2022/08/17 09:12:41;;;;;;;8.23;4.32;;;;;;;29.30;40.77;100477.09;6095912;28;20067;-65
2022/08/17 09:15:40;;;;;;;6.47;4.03;;;;;;;29.54;40.50;100462.88;6094236;28;20793;-66
2022/08/17 09:18:43;;;;;;;7.20;4.22;;;;;;;30.05;39.92;100467.09;6095278;28;20037;-65
2022/08/17 09:21:58;;;;;;;7.15;4.13;;;;;;;29.80;40.84;100476.22;6097963;28;20040;-66
2022/08/17 09:25:02;;;;;;;6.13;4.10;;;;;;;29.75;40.28;100472.66;6096198;28;20049;-65
2022/08/17 09:28:03;;;;;;;6.70;3.75;;;;;;;29.82;39.54;100479.50;6096878;28;20025;-66
2022/08/17 09:31:10;;;;;;;7.38;3.92;;;;;;;30.41;38.56;100463.09;6093160;28;20033;-65
2022/08/17 09:34:11;;;;;;;6.68;3.60;;;;;;;30.41;38.31;100459.56;6091709;28;20709;-66
2022/08/17 09:37:18;;;;;;;6.88;3.50;;;;;;;30.29;39.12;100462.59;6095241;28;20029;-65
2022/08/17 09:40:26;;;;;;;10.65;4.20;;;;;;;30.52;38.24;100478.34;6093359;28;20025;-65
2022/08/17 09:43:31;;;;;;;7.75;4.13;;;;;;;30.51;37.35;100454.84;6094663;28;20037;-65
2022/08/17 09:46:40;;;;;;;8.32;3.63;;;;;;;30.50;37.72;100469.63;6091770;28;20925;-65
2022/08/17 09:49:51;;;;;;;6.97;3.30;;;;;;;30.46;37.68;100462.25;6094334;28;20086;-65
2022/08/17 09:52:47;;;;;;;7.55;3.58;;;;;;;30.23;37.82;100458.25;6094771;28;20182;-65
2022/08/17 09:56:00;;;;;;;6.55;4.18;;;;;;;30.31;38.20;100467.78;6095360;28;20061;-66
2022/08/17 09:59:24;;;;;;;8.07;3.97;;;;;;;30.18;38.26;100455.53;6092896;28;20525;-65
2022/08/17 10:02:36;;;;;;;6.35;3.80;;;;;;;30.59;37.80;100462.44;6091185;28;20443;-66
2022/08/17 10:05:41;;;;;;;6.00;3.67;;;;;;;30.56;37.02;100457.53;6090797;28;20045;-65
2022/08/17 10:09:05;;;;;;;6.15;3.80;;;;;;;30.08;38.29;100461.06;6089947;28;20029;-65
2022/08/17 10:12:14;;;;;;;6.22;3.80;;;;;;;30.87;36.11;100440.88;6092175;28;20123;-66
2022/08/17 10:15:32;;;;;;;6.55;3.80;;;;;;;30.42;36.82;100455.72;6087420;28;20029;-65
2022/08/17 10:19:12;;;;;;;5.97;4.10;;;;;;;30.82;35.96;100446.41;6093551;28;20025;-66
2022/08/17 10:26:12;;;;;;;5.47;3.95;;;;;;;30.67;35.19;100442.69;6087647;28;20036;-65
2022/08/17 10:29:18;;;;;;;8.52;3.70;;;;;;;30.60;35.85;100436.69;6091443;28;20024;-65
2022/08/17 10:32:24;;;;;;;8.18;3.35;;;;;;;30.57;36.70;100436.47;6088879;28;20036;-66
2022/08/17 10:35:29;;;;;;;7.75;4.18;;;;;;;30.49;37.27;100424.16;6105539;28;20398;-65
2022/08/17 10:38:27;;;;;;;4.80;3.40;;;;;;;30.87;35.77;100418.97;6089986;28;20064;-65
2022/08/17 10:41:41;;;;;;;4.97;3.03;;;;;;;31.27;35.02;100431.50;6089326;28;20036;-65
2022/08/17 10:45:16;;;;;;;5.22;3.60;;;;;;;31.34;34.85;100429.25;6093525;28;20086;-65
2022/08/17 10:48:26;;;;;;;5.40;3.08;;;;;;;31.65;33.94;100409.44;6070990;28;20067;-66
2022/08/17 10:51:36;;;;;;;4.97;3.03;;;;;;;31.64;31.99;100417.94;6091591;28;20037;-65
2022/08/17 10:54:33;;;;;;;4.63;3.13;;;;;;;31.62;33.46;100410.03;6093261;28;20029;-66
2022/08/17 10:57:30;;;;;;;6.68;3.38;;;;;;;32.04;33.38;100427.66;6088069;28;20070;-65
2022/08/17 11:00:28;;;;;;;5.88;3.08;;;;;;;32.05;32.80;100430.09;6092955;28;20048;-65
2022/08/17 11:03:24;;;;;;;4.88;3.30;;;;;;;32.48;32.58;100408.84;6081199;28;20128;-65
2022/08/17 11:06:31;;;;;;;4.93;2.97;;;;;;;32.28;33.16;100418.25;6090736;28;20469;-65
2022/08/17 11:10:04;;;;;;;5.15;2.83;;;;;;;32.54;31.37;100415.13;6083591;28;20045;-65
2022/08/17 11:13:00;;;;;;;4.00;2.70;;;;;;;32.55;30.95;100405.78;6091620;28;20037;-65
2022/08/17 11:16:14;;;;;;;7.22;2.92;;;;;;;32.50;31.49;100420.38;6092241;28;20032;-66
2022/08/17 11:19:42;;;;;;;8.60;2.90;;;;;;;32.18;29.34;100412.09;6090437;28;20476;-65
2022/08/17 11:23:08;;;;;;;5.18;2.28;;;;;;;32.76;28.28;100398.84;6089508;28;20045;-65
2022/08/17 11:26:24;;;;;;;4.22;2.65;;;;;;;33.25;28.67;100412.81;6091130;28;20029;-66
2022/08/17 11:29:22;;;;;;;5.10;2.83;;;;;;;32.61;29.67;100399.91;6090049;28;20112;-65
2022/08/17 11:32:36;;;;;;;4.53;3.13;;;;;;;31.80;31.88;100392.78;6092945;28;20082;-65
2022/08/17 11:35:45;;;;;;;3.72;2.83;;;;;;;32.67;30.61;100382.22;6089844;28;20484;-65
2022/08/17 11:38:56;;;;;;;3.47;2.78;;;;;;;32.74;30.24;100381.84;6092444;28;20044;-65
2022/08/17 11:42:18;;;;;;;6.03;3.22;;;;;;;33.30;29.68;100384.41;6092784;28;20468;-66
2022/08/17 11:45:23;;;;;;;4.50;2.92;;;;;;;34.00;28.55;100376.66;6090971;28;20028;-66
2022/08/17 11:52:09;;;;;;;6.75;2.70;;;;;;;33.32;28.79;100385.72;6088818;28;20064;-65
2022/08/17 11:55:09;;;;;;;3.53;2.28;;;;;;;32.69;28.67;100373.69;6092826;28;20481;-65
2022/08/17 11:58:29;;;;;;;10.05;3.17;;;;;;;33.22;29.82;100371.38;6090795;28;20048;-66
2022/08/17 12:01:27;;;;;;;5.18;2.85;;;;;;;33.60;29.90;100367.31;6089749;28;20029;-66
2022/08/17 12:04:31;;;;;;;4.63;2.90;;;;;;;33.24;29.44;100360.91;6091700;28;20040;-66
2022/08/17 12:07:34;;;;;;;4.35;2.63;;;;;;;33.24;29.72;100369.16;6089698;28;20063;-66
2022/08/17 12:10:33;;;;;;;7.13;2.80;;;;;;;33.90;28.61;100343.84;6089329;28;20132;-66
2022/08/17 12:13:30;;;;;;;8.38;2.70;;;;;;;32.70;28.06;100359.63;6084444;28;20035;-65
2022/08/17 12:16:25;;;;;;;4.53;2.28;;;;;;;32.17;28.86;100361.03;6091878;28;20094;-65
2022/08/17 12:19:22;;;;;;;5.07;2.30;;;;;;;31.75;29.33;100357.19;6096876;28;20119;-65
2022/08/17 12:22:32;;;;;;;6.72;2.20;;;;;;;31.48;29.24;100361.66;6095665;28;20672;-66
2022/08/17 12:25:42;;;;;;;6.10;2.55;;;;;;;31.63;29.93;100378.75;6090677;28;20029;-65
2022/08/17 12:28:43;;;;;;;4.97;2.72;;;;;;;31.39;29.21;100361.44;6092848;28;20040;-65
2022/08/17 12:31:48;;;;;;;2.83;2.13;;;;;;;32.00;28.59;100353.31;6093693;28;20116;-66
2022/08/17 12:34:46;;;;;;;7.82;2.58;;;;;;;32.56;28.12;100341.50;6094989;28;20029;-66
2022/08/17 12:37:45;;;;;;;5.28;2.20;;;;;;;32.70;28.70;100362.38;6096127;28;20037;-65
2022/08/17 12:40:52;;;;;;;;;;;;;;;32.51;28.95;100361.56;6080219;28;20048;-66
2022/08/17 12:44:00;;;;;;;5.85;2.55;;;;;;;32.71;27.74;100355.78;6097252;28;19909;-66
2022/08/17 12:47:03;;;;;;;6.65;2.40;;;;;;;33.04;27.11;100358.50;6095288;28;20159;-65
2022/08/17 12:50:06;;;;;;;3.58;2.17;;;;;;;32.49;27.99;100347.34;6095593;28;20082;-65
2022/08/17 12:53:02;;;;;;;7.90;2.33;;;;;;;31.81;29.20;100358.75;6097273;28;20025;-65
2022/08/17 12:55:58;;;;;;;5.82;2.25;;;;;;;32.07;28.90;100344.72;6095280;28;20041;-65
2022/08/17 12:58:55;;;;;;;6.38;2.40;;;;;;;31.89;28.75;100332.59;6094565;28;20028;-66
2022/08/17 13:01:50;;;;;;;3.75;2.25;;;;;;;31.75;28.84;100345.41;6095718;28;20541;-65
2022/08/17 13:04:45;;;;;;;6.47;2.50;;;;;;;32.35;28.95;100333.56;6094463;28;20041;-65
2022/08/17 13:07:41;;;;;;;4.10;2.40;;;;;;;32.50;28.38;100329.75;6093996;28;20283;-65
2022/08/17 13:10:36;;;;;;;3.92;2.20;;;;;;;32.53;27.78;100315.47;6096311;28;20032;-65
2022/08/17 13:13:35;;;;;;;6.13;2.92;;;;;;;32.33;28.36;100321.25;6095077;28;20028;-66
2022/08/17 13:16:32;;;;;;;;;;;;;;;32.50;28.52;100331.69;6095939;28;20036;-65
2022/08/17 13:19:30;;;;;;;5.15;2.67;;;;;;;33.09;28.03;100311.69;6096515;28;19908;-65
2022/08/17 13:22:27;;;;;;;5.97;2.42;;;;;;;33.00;27.11;100319.78;6096371;28;20166;-66
2022/08/17 13:25:23;;;;;;;5.50;2.60;;;;;;;32.89;27.65;100319.19;6092725;28;20033;-66
2022/08/17 13:28:19;;;;;;;4.07;2.47;;;;;;;32.12;28.19;100315.28;6095648;28;20035;-65
2022/08/17 13:31:25;;;;;;;4.68;2.67;;;;;;;32.03;28.39;100321.72;6093667;28;20547;-66
2022/08/17 13:34:23;;;;;;;5.78;3.35;;;;;;;31.85;28.79;100319.75;6095515;28;20056;-65
2022/08/17 13:37:25;;;;;;;5.55;2.80;;;;;;;31.77;28.39;100313.03;6094371;28;20025;-65
2022/08/17 13:40:20;;;;;;;3.97;2.50;;;;;;;31.88;28.95;100319.97;6095183;28;20057;-65
2022/08/17 13:43:44;;;;;;;5.13;2.50;;;;;;;32.30;28.34;100321.84;6094383;28;20531;-66
2022/08/17 13:46:49;;;;;;;6.20;2.67;;;;;;;32.33;28.09;100299.28;6087804;28;20025;-66
2022/08/17 13:49:45;;;;;;;5.38;2.53;;;;;;;32.20;28.54;100306.34;6093383;28;20047;-66
2022/08/17 13:52:42;;;;;;;4.15;2.70;;;;;;;31.77;29.33;100313.03;6087651;28;20041;-66
2022/08/17 13:55:37;;;;;;;5.38;2.55;;;;;;;32.09;28.76;100315.03;6092314;28;20029;-65
2022/08/17 13:58:35;;;;;;;4.57;2.80;;;;;;;32.05;28.48;100303.00;6093041;28;20055;-66
2022/08/17 14:01:35;;;;;;;5.75;2.67;;;;;;;32.04;29.08;100307.72;6093680;28;20260;-65
2022/08/17 14:04:32;;;;;;;4.32;2.67;;;;;;;32.35;28.72;100308.03;6091931;28;20037;-67
2022/08/17 14:07:32;;;;;;;5.53;2.60;;;;;;;32.08;28.93;100294.19;6095290;28;20115;-65
2022/08/17 14:10:28;;;;;;;5.40;2.55;;;;;;;32.29;28.95;100298.22;6092995;28;20095;-65
2022/08/17 14:13:24;;;;;;;5.63;2.45;;;;;;;32.54;28.37;100275.88;6095182;28;20482;-66
2022/08/17 14:16:19;;;;;;;7.07;2.53;;;;;;;32.67;28.33;100297.06;6094737;28;20037;-66
2022/08/17 14:19:14;;;;;;;7.28;2.60;;;;;;;32.42;28.10;100285.69;6095232;28;20061;-65
2022/08/17 14:22:15;;;;;;;5.00;2.80;;;;;;;32.22;29.11;100287.66;6092542;28;20091;-65
2022/08/17 14:25:13;;;;;;;6.07;3.00;;;;;;;32.31;28.60;100299.59;6093956;28;20642;-65
2022/08/17 14:28:08;;;;;;;3.65;2.47;;;;;;;32.74;29.12;100283.75;6094865;28;20029;-66
2022/08/17 14:31:09;;;;;;;7.17;2.43;;;;;;;33.19;27.87;100287.56;6093105;28;20037;-65
2022/08/17 14:34:06;;;;;;;6.80;2.58;;;;;;;32.78;27.20;100279.25;6094591;28;20375;-65